sensor_id;sensor_type;location;lat;lon;timestamp;P1;durP1;ratioP1;P2;durP2;ratioP2
1987;SDS011;12775;46.994;15.498;2024-02-16T00:00:36;11.36;;;9.92;;
1987;SDS011;12775;46.994;15.498;2024-02-16T00:03:04;16.16;;;9.50;;
1987;SDS011;12775;46.994;15.498;2024-02-16T00:05:31;12.24;;;10.94;;
1987;SDS011;12775;46.994;15.498;2024-02-16T00:07:59;13.32;;;9.24;;
1987;SDS011;12775;46.994;15.498;2024-02-16T00:10:26;9.90;;;8.60;;
1987;SDS011;12775;46.994;15.498;2024-02-16T00:12:53;11.36;;;7.94;;
1987;SDS011;12775;46.994;15.498;2024-02-16T00:15:21;10.70;;;9.68;;
1987;SDS011;12775;46.994;15.498;2024-02-16T00:17:48;12.98;;;9.94;;
1987;SDS011;12775;46.994;15.498;2024-02-16T00:20:15;12.02;;;10.62;;
1987;SDS011;12775;46.994;15.498;2024-02-16T00:22:43;16.22;;;11.32;;
1987;SDS011;12775;46.994;15.498;2024-02-16T00:25:10;16.00;;;10.62;;
1987;SDS011;12775;46.994;15.498;2024-02-16T00:27:38;11.12;;;9.44;;
1987;SDS011;12775;46.994;15.498;2024-02-16T00:30:05;11.78;;;8.68;;
1987;SDS011;12775;46.994;15.498;2024-02-16T00:32:33;14.00;;;10.78;;
1987;SDS011;12775;46.994;15.498;2024-02-16T00:35:01;13.98;;;10.92;;
1987;SDS011;12775;46.994;15.498;2024-02-16T00:37:28;10.00;;;9.00;;
1987;SDS011;12775;46.994;15.498;2024-02-16T00:39:56;12.02;;;10.10;;
1987;SDS011;12775;46.994;15.498;2024-02-16T00:42:23;15.28;;;11.22;;
1987;SDS011;12775;46.994;15.498;2024-02-16T00:44:50;14.62;;;11.68;;
1987;SDS011;12775;46.994;15.498;2024-02-16T00:47:18;14.16;;;11.04;;
1987;SDS011;12775;46.994;15.498;2024-02-16T00:49:45;12.44;;;10.88;;
1987;SDS011;12775;46.994;15.498;2024-02-16T00:52:12;9.84;;;8.84;;
1987;SDS011;12775;46.994;15.498;2024-02-16T00:54:39;12.22;;;10.36;;
1987;SDS011;12775;46.994;15.498;2024-02-16T00:57:06;12.68;;;10.92;;
1987;SDS011;12775;46.994;15.498;2024-02-16T00:59:34;15.28;;;11.46;;
1987;SDS011;12775;46.994;15.498;2024-02-16T01:02:01;12.10;;;10.76;;
1987;SDS011;12775;46.994;15.498;2024-02-16T01:04:28;12.70;;;9.52;;
1987;SDS011;12775;46.994;15.498;2024-02-16T01:06:56;12.32;;;10.22;;
1987;SDS011;12775;46.994;15.498;2024-02-16T01:09:23;12.86;;;10.08;;
1987;SDS011;12775;46.994;15.498;2024-02-16T01:11:51;10.86;;;9.84;;
1987;SDS011;12775;46.994;15.498;2024-02-16T01:14:18;9.90;;;9.00;;
1987;SDS011;12775;46.994;15.498;2024-02-16T01:16:45;12.92;;;10.44;;
1987;SDS011;12775;46.994;15.498;2024-02-16T01:19:13;9.42;;;8.50;;
1987;SDS011;12775;46.994;15.498;2024-02-16T01:21:39;13.24;;;9.86;;
1987;SDS011;12775;46.994;15.498;2024-02-16T01:24:07;16.32;;;11.56;;
1987;SDS011;12775;46.994;15.498;2024-02-16T01:26:34;16.24;;;10.68;;
1987;SDS011;12775;46.994;15.498;2024-02-16T01:29:01;11.66;;;10.44;;
1987;SDS011;12775;46.994;15.498;2024-02-16T01:31:29;13.78;;;9.10;;
1987;SDS011;12775;46.994;15.498;2024-02-16T01:33:56;10.78;;;9.14;;
1987;SDS011;12775;46.994;15.498;2024-02-16T01:36:23;10.42;;;8.06;;
1987;SDS011;12775;46.994;15.498;2024-02-16T01:38:51;10.68;;;8.66;;
1987;SDS011;12775;46.994;15.498;2024-02-16T01:41:18;9.70;;;8.70;;
1987;SDS011;12775;46.994;15.498;2024-02-16T01:43:46;14.06;;;9.80;;
1987;SDS011;12775;46.994;15.498;2024-02-16T01:46:13;12.06;;;9.52;;
1987;SDS011;12775;46.994;15.498;2024-02-16T01:48:40;9.78;;;7.98;;
1987;SDS011;12775;46.994;15.498;2024-02-16T01:51:08;10.98;;;8.12;;
1987;SDS011;12775;46.994;15.498;2024-02-16T01:53:35;8.58;;;7.68;;
1987;SDS011;12775;46.994;15.498;2024-02-16T01:56:02;10.86;;;8.32;;
1987;SDS011;12775;46.994;15.498;2024-02-16T01:58:29;9.58;;;7.90;;
1987;SDS011;12775;46.994;15.498;2024-02-16T02:00:56;14.30;;;9.10;;
1987;SDS011;12775;46.994;15.498;2024-02-16T02:03:24;9.50;;;8.50;;
1987;SDS011;12775;46.994;15.498;2024-02-16T02:05:51;9.88;;;8.88;;
1987;SDS011;12775;46.994;15.498;2024-02-16T02:08:19;10.02;;;8.46;;
1987;SDS011;12775;46.994;15.498;2024-02-16T02:10:46;10.48;;;8.66;;
1987;SDS011;12775;46.994;15.498;2024-02-16T02:13:13;9.42;;;8.42;;
1987;SDS011;12775;46.994;15.498;2024-02-16T02:15:41;9.24;;;8.06;;
1987;SDS011;12775;46.994;15.498;2024-02-16T02:18:08;11.60;;;9.08;;
1987;SDS011;12775;46.994;15.498;2024-02-16T02:20:35;11.04;;;9.18;;
1987;SDS011;12775;46.994;15.498;2024-02-16T02:23:04;9.76;;;8.38;;
1987;SDS011;12775;46.994;15.498;2024-02-16T02:25:31;14.10;;;9.30;;
1987;SDS011;12775;46.994;15.498;2024-02-16T02:27:58;10.62;;;9.46;;
1987;SDS011;12775;46.994;15.498;2024-02-16T02:30:25;13.00;;;7.80;;
1987;SDS011;12775;46.994;15.498;2024-02-16T02:32:53;10.34;;;8.00;;
1987;SDS011;12775;46.994;15.498;2024-02-16T02:35:20;10.06;;;9.00;;
1987;SDS011;12775;46.994;15.498;2024-02-16T02:37:48;9.46;;;8.44;;
1987;SDS011;12775;46.994;15.498;2024-02-16T02:40:15;10.54;;;9.50;;
1987;SDS011;12775;46.994;15.498;2024-02-16T02:42:43;9.06;;;7.30;;
1987;SDS011;12775;46.994;15.498;2024-02-16T02:45:10;9.52;;;7.42;;
1987;SDS011;12775;46.994;15.498;2024-02-16T02:47:38;21.12;;;9.22;;
1987;SDS011;12775;46.994;15.498;2024-02-16T02:50:06;10.40;;;9.30;;
1987;SDS011;12775;46.994;15.498;2024-02-16T02:52:34;10.98;;;8.36;;
1987;SDS011;12775;46.994;15.498;2024-02-16T02:55:01;10.22;;;7.60;;
1987;SDS011;12775;46.994;15.498;2024-02-16T02:57:29;9.92;;;8.38;;
1987;SDS011;12775;46.994;15.498;2024-02-16T03:00:03;8.74;;;7.90;;
1987;SDS011;12775;46.994;15.498;2024-02-16T03:02:31;9.80;;;7.90;;
1987;SDS011;12775;46.994;15.498;2024-02-16T03:04:58;10.50;;;8.16;;
1987;SDS011;12775;46.994;15.498;2024-02-16T03:07:25;11.98;;;9.80;;
1987;SDS011;12775;46.994;15.498;2024-02-16T03:09:53;9.56;;;8.66;;
1987;SDS011;12775;46.994;15.498;2024-02-16T03:12:20;10.10;;;8.60;;
1987;SDS011;12775;46.994;15.498;2024-02-16T03:14:47;9.10;;;7.16;;
1987;SDS011;12775;46.994;15.498;2024-02-16T03:17:15;10.24;;;7.32;;
1987;SDS011;12775;46.994;15.498;2024-02-16T03:19:42;7.92;;;7.12;;
1987;SDS011;12775;46.994;15.498;2024-02-16T03:22:09;10.38;;;7.54;;
1987;SDS011;12775;46.994;15.498;2024-02-16T03:24:37;8.62;;;7.72;;
1987;SDS011;12775;46.994;15.498;2024-02-16T03:27:04;13.34;;;8.30;;
1987;SDS011;12775;46.994;15.498;2024-02-16T03:29:32;10.10;;;8.06;;
1987;SDS011;12775;46.994;15.498;2024-02-16T03:31:59;10.70;;;7.48;;
1987;SDS011;12775;46.994;15.498;2024-02-16T03:34:26;7.72;;;6.92;;
1987;SDS011;12775;46.994;15.498;2024-02-16T03:36:54;9.36;;;8.36;;
1987;SDS011;12775;46.994;15.498;2024-02-16T03:39:21;10.32;;;8.64;;
1987;SDS011;12775;46.994;15.498;2024-02-16T03:41:49;10.50;;;8.08;;
1987;SDS011;12775;46.994;15.498;2024-02-16T03:44:17;12.86;;;8.56;;
1987;SDS011;12775;46.994;15.498;2024-02-16T03:46:44;11.20;;;7.96;;
1987;SDS011;12775;46.994;15.498;2024-02-16T03:49:11;11.00;;;7.94;;
1987;SDS011;12775;46.994;15.498;2024-02-16T03:51:39;9.24;;;7.62;;
1987;SDS011;12775;46.994;15.498;2024-02-16T03:54:06;16.26;;;9.28;;
1987;SDS011;12775;46.994;15.498;2024-02-16T03:56:33;10.30;;;8.46;;
1987;SDS011;12775;46.994;15.498;2024-02-16T03:59:01;9.08;;;8.16;;
1987;SDS011;12775;46.994;15.498;2024-02-16T04:01:28;9.76;;;8.64;;
1987;SDS011;12775;46.994;15.498;2024-02-16T04:03:56;8.82;;;6.98;;
1987;SDS011;12775;46.994;15.498;2024-02-16T04:06:23;9.98;;;8.98;;
1987;SDS011;12775;46.994;15.498;2024-02-16T04:08:50;10.04;;;9.04;;
1987;SDS011;12775;46.994;15.498;2024-02-16T04:11:18;8.58;;;7.78;;
1987;SDS011;12775;46.994;15.498;2024-02-16T04:13:45;8.40;;;7.60;;
1987;SDS011;12775;46.994;15.498;2024-02-16T04:16:12;8.72;;;7.88;;
1987;SDS011;12775;46.994;15.498;2024-02-16T04:18:40;9.60;;;8.72;;
1987;SDS011;12775;46.994;15.498;2024-02-16T04:21:07;9.88;;;7.78;;
1987;SDS011;12775;46.994;15.498;2024-02-16T04:23:34;9.76;;;7.70;;
1987;SDS011;12775;46.994;15.498;2024-02-16T04:26:02;11.48;;;8.90;;
1987;SDS011;12775;46.994;15.498;2024-02-16T04:28:30;12.98;;;9.34;;
1987;SDS011;12775;46.994;15.498;2024-02-16T04:30:57;13.76;;;9.28;;
1987;SDS011;12775;46.994;15.498;2024-02-16T04:33:25;9.10;;;7.92;;
1987;SDS011;12775;46.994;15.498;2024-02-16T04:35:53;11.18;;;7.84;;
1987;SDS011;12775;46.994;15.498;2024-02-16T04:38:20;13.58;;;8.14;;
1987;SDS011;12775;46.994;15.498;2024-02-16T04:40:48;10.80;;;8.68;;
1987;SDS011;12775;46.994;15.498;2024-02-16T04:43:15;12.52;;;7.70;;
1987;SDS011;12775;46.994;15.498;2024-02-16T04:45:43;12.16;;;8.54;;
1987;SDS011;12775;46.994;15.498;2024-02-16T04:48:10;10.90;;;9.18;;
1987;SDS011;12775;46.994;15.498;2024-02-16T04:50:37;11.94;;;8.26;;
1987;SDS011;12775;46.994;15.498;2024-02-16T04:53:06;9.48;;;8.20;;
1987;SDS011;12775;46.994;15.498;2024-02-16T04:55:33;9.72;;;7.58;;
1987;SDS011;12775;46.994;15.498;2024-02-16T04:58:01;10.86;;;8.88;;
1987;SDS011;12775;46.994;15.498;2024-02-16T05:00:29;10.28;;;9.24;;
1987;SDS011;12775;46.994;15.498;2024-02-16T05:02:56;10.94;;;8.30;;
1987;SDS011;12775;46.994;15.498;2024-02-16T05:05:24;9.72;;;7.62;;
1987;SDS011;12775;46.994;15.498;2024-02-16T05:07:52;14.38;;;9.82;;
1987;SDS011;12775;46.994;15.498;2024-02-16T05:10:18;10.54;;;7.56;;
1987;SDS011;12775;46.994;15.498;2024-02-16T05:12:46;14.54;;;8.40;;
1987;SDS011;12775;46.994;15.498;2024-02-16T05:15:13;10.70;;;7.64;;
1987;SDS011;12775;46.994;15.498;2024-02-16T05:17:41;11.22;;;8.70;;
1987;SDS011;12775;46.994;15.498;2024-02-16T05:20:09;10.10;;;9.10;;
1987;SDS011;12775;46.994;15.498;2024-02-16T05:22:37;11.12;;;9.02;;
1987;SDS011;12775;46.994;15.498;2024-02-16T05:25:04;12.04;;;8.80;;
1987;SDS011;12775;46.994;15.498;2024-02-16T05:27:31;9.90;;;8.40;;
1987;SDS011;12775;46.994;15.498;2024-02-16T05:29:59;11.60;;;8.18;;
1987;SDS011;12775;46.994;15.498;2024-02-16T05:32:25;10.74;;;8.02;;
1987;SDS011;12775;46.994;15.498;2024-02-16T05:34:53;9.94;;;8.72;;
1987;SDS011;12775;46.994;15.498;2024-02-16T05:37:20;12.28;;;10.14;;
1987;SDS011;12775;46.994;15.498;2024-02-16T05:39:47;11.02;;;8.92;;
1987;SDS011;12775;46.994;15.498;2024-02-16T05:42:20;17.08;;;10.74;;
1987;SDS011;12775;46.994;15.498;2024-02-16T05:44:48;21.30;;;10.76;;
1987;SDS011;12775;46.994;15.498;2024-02-16T05:47:16;12.84;;;8.70;;
1987;SDS011;12775;46.994;15.498;2024-02-16T05:49:45;18.32;;;10.38;;
1987;SDS011;12775;46.994;15.498;2024-02-16T05:52:10;14.88;;;9.80;;
1987;SDS011;12775;46.994;15.498;2024-02-16T05:54:45;24.12;;;11.20;;
1987;SDS011;12775;46.994;15.498;2024-02-16T05:57:12;14.00;;;9.14;;
1987;SDS011;12775;46.994;15.498;2024-02-16T05:59:38;13.96;;;10.42;;
1987;SDS011;12775;46.994;15.498;2024-02-16T06:02:06;16.70;;;10.46;;
1987;SDS011;12775;46.994;15.498;2024-02-16T06:04:33;13.70;;;9.42;;
1987;SDS011;12775;46.994;15.498;2024-02-16T06:07:00;10.76;;;9.14;;
1987;SDS011;12775;46.994;15.498;2024-02-16T06:09:27;17.30;;;12.78;;
1987;SDS011;12775;46.994;15.498;2024-02-16T06:11:55;14.08;;;10.68;;
1987;SDS011;12775;46.994;15.498;2024-02-16T06:14:23;11.86;;;9.82;;
1987;SDS011;12775;46.994;15.498;2024-02-16T06:16:50;17.76;;;10.46;;
1987;SDS011;12775;46.994;15.498;2024-02-16T06:19:17;20.84;;;12.32;;
1987;SDS011;12775;46.994;15.498;2024-02-16T06:21:45;24.28;;;15.24;;
1987;SDS011;12775;46.994;15.498;2024-02-16T06:24:12;18.16;;;10.92;;
1987;SDS011;12775;46.994;15.498;2024-02-16T06:26:39;24.02;;;13.06;;
1987;SDS011;12775;46.994;15.498;2024-02-16T06:29:07;17.40;;;11.22;;
1987;SDS011;12775;46.994;15.498;2024-02-16T06:31:34;19.98;;;11.64;;
1987;SDS011;12775;46.994;15.498;2024-02-16T06:34:02;15.04;;;11.02;;
1987;SDS011;12775;46.994;15.498;2024-02-16T06:36:29;23.24;;;10.92;;
1987;SDS011;12775;46.994;15.498;2024-02-16T06:38:56;14.94;;;10.32;;
1987;SDS011;12775;46.994;15.498;2024-02-16T06:41:25;17.80;;;10.98;;
1987;SDS011;12775;46.994;15.498;2024-02-16T06:43:51;17.94;;;10.58;;
1987;SDS011;12775;46.994;15.498;2024-02-16T06:46:19;18.88;;;10.96;;
1987;SDS011;12775;46.994;15.498;2024-02-16T06:48:46;18.60;;;11.00;;
1987;SDS011;12775;46.994;15.498;2024-02-16T06:51:13;17.06;;;11.16;;
1987;SDS011;12775;46.994;15.498;2024-02-16T06:53:41;21.52;;;11.80;;
1987;SDS011;12775;46.994;15.498;2024-02-16T06:56:09;19.02;;;12.40;;
1987;SDS011;12775;46.994;15.498;2024-02-16T06:58:35;18.64;;;11.36;;
1987;SDS011;12775;46.994;15.498;2024-02-16T07:01:03;16.08;;;10.96;;
1987;SDS011;12775;46.994;15.498;2024-02-16T07:03:30;17.56;;;11.78;;
1987;SDS011;12775;46.994;15.498;2024-02-16T07:05:58;16.14;;;13.06;;
1987;SDS011;12775;46.994;15.498;2024-02-16T07:08:25;22.24;;;15.22;;
1987;SDS011;12775;46.994;15.498;2024-02-16T07:10:52;17.64;;;13.98;;
1987;SDS011;12775;46.994;15.498;2024-02-16T07:13:20;20.52;;;13.84;;
1987;SDS011;12775;46.994;15.498;2024-02-16T07:15:47;19.08;;;15.60;;
1987;SDS011;12775;46.994;15.498;2024-02-16T07:18:15;22.42;;;16.38;;
1987;SDS011;12775;46.994;15.498;2024-02-16T07:20:42;23.44;;;18.22;;
1987;SDS011;12775;46.994;15.498;2024-02-16T07:23:09;24.36;;;18.96;;
1987;SDS011;12775;46.994;15.498;2024-02-16T07:25:36;23.56;;;17.74;;
1987;SDS011;12775;46.994;15.498;2024-02-16T07:28:04;23.04;;;17.72;;
1987;SDS011;12775;46.994;15.498;2024-02-16T07:30:32;27.86;;;19.30;;
1987;SDS011;12775;46.994;15.498;2024-02-16T07:32:59;21.50;;;16.60;;
1987;SDS011;12775;46.994;15.498;2024-02-16T07:35:26;18.04;;;13.86;;
1987;SDS011;12775;46.994;15.498;2024-02-16T07:37:54;20.14;;;16.10;;
1987;SDS011;12775;46.994;15.498;2024-02-16T07:40:21;23.02;;;14.40;;
1987;SDS011;12775;46.994;15.498;2024-02-16T07:42:49;25.12;;;15.68;;
1987;SDS011;12775;46.994;15.498;2024-02-16T07:45:17;29.20;;;17.80;;
1987;SDS011;12775;46.994;15.498;2024-02-16T07:50:23;22.72;;;18.72;;
1987;SDS011;12775;46.994;15.498;2024-02-16T07:52:50;23.16;;;17.38;;
1987;SDS011;12775;46.994;15.498;2024-02-16T07:55:17;23.02;;;18.48;;
1987;SDS011;12775;46.994;15.498;2024-02-16T07:57:46;23.82;;;17.36;;
1987;SDS011;12775;46.994;15.498;2024-02-16T08:00:13;20.62;;;16.38;;
1987;SDS011;12775;46.994;15.498;2024-02-16T08:02:41;17.24;;;14.78;;
1987;SDS011;12775;46.994;15.498;2024-02-16T08:05:10;18.80;;;15.24;;
1987;SDS011;12775;46.994;15.498;2024-02-16T08:07:39;16.02;;;13.96;;
1987;SDS011;12775;46.994;15.498;2024-02-16T08:10:06;17.16;;;15.38;;
1987;SDS011;12775;46.994;15.498;2024-02-16T08:12:34;20.30;;;16.14;;
1987;SDS011;12775;46.994;15.498;2024-02-16T08:15:02;21.32;;;14.82;;
1987;SDS011;12775;46.994;15.498;2024-02-16T08:17:30;20.58;;;13.94;;
1987;SDS011;12775;46.994;15.498;2024-02-16T08:19:57;14.48;;;12.68;;
1987;SDS011;12775;46.994;15.498;2024-02-16T08:22:24;18.62;;;12.96;;
1987;SDS011;12775;46.994;15.498;2024-02-16T08:24:52;13.50;;;12.08;;
1987;SDS011;12775;46.994;15.498;2024-02-16T08:27:19;18.28;;;13.96;;
1987;SDS011;12775;46.994;15.498;2024-02-16T08:29:46;17.60;;;12.98;;
1987;SDS011;12775;46.994;15.498;2024-02-16T08:32:15;24.32;;;21.94;;
1987;SDS011;12775;46.994;15.498;2024-02-16T08:34:43;21.72;;;19.50;;
1987;SDS011;12775;46.994;15.498;2024-02-16T08:37:10;15.76;;;14.34;;
1987;SDS011;12775;46.994;15.498;2024-02-16T08:39:38;17.50;;;13.66;;
1987;SDS011;12775;46.994;15.498;2024-02-16T08:42:04;13.80;;;12.40;;
1987;SDS011;12775;46.994;15.498;2024-02-16T08:44:31;15.66;;;12.02;;
1987;SDS011;12775;46.994;15.498;2024-02-16T08:46:59;14.74;;;11.72;;
1987;SDS011;12775;46.994;15.498;2024-02-16T08:49:26;16.78;;;11.20;;
1987;SDS011;12775;46.994;15.498;2024-02-16T08:51:53;11.18;;;10.04;;
1987;SDS011;12775;46.994;15.498;2024-02-16T08:54:20;14.36;;;11.22;;
1987;SDS011;12775;46.994;15.498;2024-02-16T08:56:47;10.94;;;9.84;;
1987;SDS011;12775;46.994;15.498;2024-02-16T08:59:15;12.32;;;10.98;;
1987;SDS011;12775;46.994;15.498;2024-02-16T09:01:42;11.68;;;10.60;;
1987;SDS011;12775;46.994;15.498;2024-02-16T09:04:10;11.08;;;9.36;;
1987;SDS011;12775;46.994;15.498;2024-02-16T09:06:38;12.58;;;11.04;;
1987;SDS011;12775;46.994;15.498;2024-02-16T09:09:05;10.80;;;9.70;;
1987;SDS011;12775;46.994;15.498;2024-02-16T09:11:33;13.56;;;10.88;;
1987;SDS011;12775;46.994;15.498;2024-02-16T09:14:01;12.60;;;10.84;;
1987;SDS011;12775;46.994;15.498;2024-02-16T09:16:29;26.36;;;10.64;;
1987;SDS011;12775;46.994;15.498;2024-02-16T09:18:58;12.42;;;10.66;;
1987;SDS011;12775;46.994;15.498;2024-02-16T09:21:25;12.92;;;10.50;;
1987;SDS011;12775;46.994;15.498;2024-02-16T09:23:52;11.02;;;9.82;;
1987;SDS011;12775;46.994;15.498;2024-02-16T09:26:21;12.24;;;9.06;;
1987;SDS011;12775;46.994;15.498;2024-02-16T09:28:48;11.74;;;10.34;;
1987;SDS011;12775;46.994;15.498;2024-02-16T09:31:15;10.00;;;9.20;;
1987;SDS011;12775;46.994;15.498;2024-02-16T09:33:43;11.24;;;10.06;;
1987;SDS011;12775;46.994;15.498;2024-02-16T09:36:10;11.82;;;10.50;;
1987;SDS011;12775;46.994;15.498;2024-02-16T09:38:37;12.04;;;10.46;;
1987;SDS011;12775;46.994;15.498;2024-02-16T09:41:05;11.54;;;10.24;;
1987;SDS011;12775;46.994;15.498;2024-02-16T09:43:32;12.86;;;11.10;;
1987;SDS011;12775;46.994;15.498;2024-02-16T09:46:00;15.08;;;11.48;;
1987;SDS011;12775;46.994;15.498;2024-02-16T09:48:27;12.30;;;11.04;;
1987;SDS011;12775;46.994;15.498;2024-02-16T09:50:55;12.34;;;10.68;;
1987;SDS011;12775;46.994;15.498;2024-02-16T09:53:23;12.36;;;10.36;;
1987;SDS011;12775;46.994;15.498;2024-02-16T09:55:49;10.34;;;9.30;;
1987;SDS011;12775;46.994;15.498;2024-02-16T09:58:17;13.58;;;10.86;;
1987;SDS011;12775;46.994;15.498;2024-02-16T10:00:48;12.84;;;10.96;;
1987;SDS011;12775;46.994;15.498;2024-02-16T10:03:21;11.34;;;10.26;;
1987;SDS011;12775;46.994;15.498;2024-02-16T10:05:49;13.76;;;10.92;;
1987;SDS011;12775;46.994;15.498;2024-02-16T10:08:16;11.76;;;10.12;;
1987;SDS011;12775;46.994;15.498;2024-02-16T10:10:44;9.74;;;8.84;;
1987;SDS011;12775;46.994;15.498;2024-02-16T10:13:11;11.02;;;9.58;;
1987;SDS011;12775;46.994;15.498;2024-02-16T10:15:38;14.22;;;10.52;;
1987;SDS011;12775;46.994;15.498;2024-02-16T10:18:05;11.48;;;10.28;;
1987;SDS011;12775;46.994;15.498;2024-02-16T10:20:34;11.40;;;10.20;;
1987;SDS011;12775;46.994;15.498;2024-02-16T10:23:03;11.24;;;10.10;;
1987;SDS011;12775;46.994;15.498;2024-02-16T10:25:31;12.34;;;11.00;;
1987;SDS011;12775;46.994;15.498;2024-02-16T10:27:59;13.64;;;12.20;;
1987;SDS011;12775;46.994;15.498;2024-02-16T10:30:28;12.80;;;11.58;;
1987;SDS011;12775;46.994;15.498;2024-02-16T10:32:53;14.20;;;11.16;;
1987;SDS011;12775;46.994;15.498;2024-02-16T10:35:22;12.56;;;11.22;;
1987;SDS011;12775;46.994;15.498;2024-02-16T10:37:49;13.92;;;12.52;;
1987;SDS011;12775;46.994;15.498;2024-02-16T10:40:17;18.78;;;12.90;;
1987;SDS011;12775;46.994;15.498;2024-02-16T10:42:45;12.00;;;10.88;;
1987;SDS011;12775;46.994;15.498;2024-02-16T10:45:12;14.62;;;13.08;;
1987;SDS011;12775;46.994;15.498;2024-02-16T10:47:39;16.20;;;13.22;;
1987;SDS011;12775;46.994;15.498;2024-02-16T10:50:07;15.40;;;12.52;;
1987;SDS011;12775;46.994;15.498;2024-02-16T10:52:35;15.16;;;13.06;;
1987;SDS011;12775;46.994;15.498;2024-02-16T10:55:02;13.46;;;12.06;;
1987;SDS011;12775;46.994;15.498;2024-02-16T10:57:30;15.78;;;13.22;;
1987;SDS011;12775;46.994;15.498;2024-02-16T10:59:57;13.44;;;11.74;;
1987;SDS011;12775;46.994;15.498;2024-02-16T11:02:25;17.18;;;11.62;;
1987;SDS011;12775;46.994;15.498;2024-02-16T11:04:52;12.92;;;11.72;;
1987;SDS011;12775;46.994;15.498;2024-02-16T11:07:19;13.90;;;12.36;;
1987;SDS011;12775;46.994;15.498;2024-02-16T11:09:47;12.64;;;11.46;;
1987;SDS011;12775;46.994;15.498;2024-02-16T11:12:14;12.96;;;11.74;;
1987;SDS011;12775;46.994;15.498;2024-02-16T11:14:42;13.02;;;11.82;;
1987;SDS011;12775;46.994;15.498;2024-02-16T11:17:10;12.80;;;11.60;;
1987;SDS011;12775;46.994;15.498;2024-02-16T11:19:39;13.76;;;12.30;;
1987;SDS011;12775;46.994;15.498;2024-02-16T11:22:07;13.62;;;12.22;;
1987;SDS011;12775;46.994;15.498;2024-02-16T11:24:35;12.82;;;11.62;;
1987;SDS011;12775;46.994;15.498;2024-02-16T11:27:04;11.96;;;10.78;;
1987;SDS011;12775;46.994;15.498;2024-02-16T11:29:33;13.94;;;12.74;;
1987;SDS011;12775;46.994;15.498;2024-02-16T11:32:02;13.66;;;12.28;;
1987;SDS011;12775;46.994;15.498;2024-02-16T11:34:29;11.14;;;10.00;;
1987;SDS011;12775;46.994;15.498;2024-02-16T11:36:57;14.08;;;12.66;;
1987;SDS011;12775;46.994;15.498;2024-02-16T11:39:25;13.36;;;11.86;;
1987;SDS011;12775;46.994;15.498;2024-02-16T11:41:59;12.96;;;11.66;;
1987;SDS011;12775;46.994;15.498;2024-02-16T11:44:29;12.50;;;11.32;;
1987;SDS011;12775;46.994;15.498;2024-02-16T11:46:57;12.48;;;11.26;;
1987;SDS011;12775;46.994;15.498;2024-02-16T11:49:24;16.70;;;13.06;;
1987;SDS011;12775;46.994;15.498;2024-02-16T11:51:52;12.94;;;11.18;;
1987;SDS011;12775;46.994;15.498;2024-02-16T11:54:19;13.06;;;11.20;;
1987;SDS011;12775;46.994;15.498;2024-02-16T11:56:48;13.94;;;11.32;;
1987;SDS011;12775;46.994;15.498;2024-02-16T11:59:15;13.10;;;11.70;;
1987;SDS011;12775;46.994;15.498;2024-02-16T12:04:22;11.34;;;10.24;;
1987;SDS011;12775;46.994;15.498;2024-02-16T12:06:51;14.16;;;12.12;;
1987;SDS011;12775;46.994;15.498;2024-02-16T12:09:20;12.10;;;10.96;;
1987;SDS011;12775;46.994;15.498;2024-02-16T12:11:48;14.76;;;12.30;;
1987;SDS011;12775;46.994;15.498;2024-02-16T12:14:16;12.16;;;10.90;;
1987;SDS011;12775;46.994;15.498;2024-02-16T12:16:48;12.56;;;11.46;;
1987;SDS011;12775;46.994;15.498;2024-02-16T12:19:18;12.84;;;11.44;;
1987;SDS011;12775;46.994;15.498;2024-02-16T12:21:45;12.50;;;10.48;;
1987;SDS011;12775;46.994;15.498;2024-02-16T12:24:11;12.08;;;10.82;;
1987;SDS011;12775;46.994;15.498;2024-02-16T12:26:39;13.64;;;10.90;;
1987;SDS011;12775;46.994;15.498;2024-02-16T12:29:06;10.38;;;9.34;;
1987;SDS011;12775;46.994;15.498;2024-02-16T12:31:34;11.96;;;10.78;;
1987;SDS011;12775;46.994;15.498;2024-02-16T12:34:01;9.56;;;8.66;;
1987;SDS011;12775;46.994;15.498;2024-02-16T12:36:28;10.12;;;9.28;;
1987;SDS011;12775;46.994;15.498;2024-02-16T12:38:56;12.86;;;10.00;;
1987;SDS011;12775;46.994;15.498;2024-02-16T12:41:23;11.38;;;10.38;;
1987;SDS011;12775;46.994;15.498;2024-02-16T12:43:50;9.00;;;8.12;;
1987;SDS011;12775;46.994;15.498;2024-02-16T12:46:19;7.64;;;7.04;;
1987;SDS011;12775;46.994;15.498;2024-02-16T12:48:44;10.36;;;8.26;;
1987;SDS011;12775;46.994;15.498;2024-02-16T12:51:12;12.54;;;11.26;;
1987;SDS011;12775;46.994;15.498;2024-02-16T12:53:39;12.04;;;10.82;;
1987;SDS011;12775;46.994;15.498;2024-02-16T12:56:08;13.20;;;9.58;;
1987;SDS011;12775;46.994;15.498;2024-02-16T12:58:36;10.56;;;9.56;;
1987;SDS011;12775;46.994;15.498;2024-02-16T13:01:03;9.48;;;8.66;;
1987;SDS011;12775;46.994;15.498;2024-02-16T13:03:33;6.82;;;6.10;;
1987;SDS011;12775;46.994;15.498;2024-02-16T13:06:01;7.38;;;6.70;;
1987;SDS011;12775;46.994;15.498;2024-02-16T13:08:28;8.16;;;7.40;;
1987;SDS011;12775;46.994;15.498;2024-02-16T13:10:56;10.18;;;8.78;;
1987;SDS011;12775;46.994;15.498;2024-02-16T13:13:23;9.56;;;8.64;;
1987;SDS011;12775;46.994;15.498;2024-02-16T13:15:50;9.98;;;8.10;;
1987;SDS011;12775;46.994;15.498;2024-02-16T13:18:17;9.08;;;8.22;;
1987;SDS011;12775;46.994;15.498;2024-02-16T13:20:46;9.26;;;8.42;;
1987;SDS011;12775;46.994;15.498;2024-02-16T13:23:12;9.34;;;8.54;;
1987;SDS011;12775;46.994;15.498;2024-02-16T13:25:39;8.46;;;7.68;;
1987;SDS011;12775;46.994;15.498;2024-02-16T13:28:07;9.86;;;8.62;;
1987;SDS011;12775;46.994;15.498;2024-02-16T13:30:34;9.90;;;8.98;;
1987;SDS011;12775;46.994;15.498;2024-02-16T13:33:01;8.84;;;8.00;;
1987;SDS011;12775;46.994;15.498;2024-02-16T13:35:29;10.52;;;9.40;;
1987;SDS011;12775;46.994;15.498;2024-02-16T13:37:56;8.80;;;7.90;;
1987;SDS011;12775;46.994;15.498;2024-02-16T13:40:25;11.64;;;10.20;;
1987;SDS011;12775;46.994;15.498;2024-02-16T13:42:52;11.76;;;8.72;;
1987;SDS011;12775;46.994;15.498;2024-02-16T13:45:22;9.86;;;8.40;;
1987;SDS011;12775;46.994;15.498;2024-02-16T13:47:49;9.22;;;8.28;;
1987;SDS011;12775;46.994;15.498;2024-02-16T13:50:17;11.40;;;8.82;;
1987;SDS011;12775;46.994;15.498;2024-02-16T13:52:44;12.04;;;9.46;;
1987;SDS011;12775;46.994;15.498;2024-02-16T13:55:12;9.06;;;8.22;;
1987;SDS011;12775;46.994;15.498;2024-02-16T13:57:39;10.14;;;9.14;;
1987;SDS011;12775;46.994;15.498;2024-02-16T14:00:07;10.24;;;9.24;;
1987;SDS011;12775;46.994;15.498;2024-02-16T14:02:34;10.44;;;9.10;;
1987;SDS011;12775;46.994;15.498;2024-02-16T14:05:02;9.48;;;8.62;;
1987;SDS011;12775;46.994;15.498;2024-02-16T14:07:29;10.18;;;8.46;;
1987;SDS011;12775;46.994;15.498;2024-02-16T14:09:57;8.08;;;7.28;;
1987;SDS011;12775;46.994;15.498;2024-02-16T14:12:24;8.54;;;7.68;;
1987;SDS011;12775;46.994;15.498;2024-02-16T14:14:51;10.68;;;7.66;;
1987;SDS011;12775;46.994;15.498;2024-02-16T14:17:19;9.44;;;8.32;;
1987;SDS011;12775;46.994;15.498;2024-02-16T14:19:46;12.36;;;7.44;;
1987;SDS011;12775;46.994;15.498;2024-02-16T14:22:14;8.48;;;7.58;;
1987;SDS011;12775;46.994;15.498;2024-02-16T14:24:41;8.84;;;8.04;;
1987;SDS011;12775;46.994;15.498;2024-02-16T14:27:08;9.02;;;7.80;;
1987;SDS011;12775;46.994;15.498;2024-02-16T14:29:36;9.10;;;7.24;;
1987;SDS011;12775;46.994;15.498;2024-02-16T14:32:02;9.94;;;8.88;;
1987;SDS011;12775;46.994;15.498;2024-02-16T14:34:30;9.10;;;8.22;;
1987;SDS011;12775;46.994;15.498;2024-02-16T14:36:57;9.26;;;8.40;;